createdAt,value
2022-09-07T00:04:40.578Z,98.55
2022-09-07T00:10:00.138Z,98.57
2022-09-07T00:15:29.030Z,98.55
2022-09-07T00:20:38.446Z,98.58
2022-09-07T00:26:07.406Z,98.77
2022-09-07T00:31:17.144Z,98.91
2022-09-07T00:36:45.042Z,99.04
2022-09-07T00:41:56.079Z,99.06
2022-09-07T00:47:15.615Z,98.97
2022-09-07T00:52:34.847Z,98.81
2022-09-07T00:57:53.958Z,98.88
2022-09-07T01:03:12.903Z,98.93
2022-09-07T01:08:32.337Z,98.88
2022-09-07T01:14:59.421Z,98.87
2022-09-07T01:19:10.622Z,98.77
2022-09-07T01:25:44.791Z,98.67
2022-09-07T01:29:48.361Z,98.72
2022-09-07T01:35:07.522Z,98.62
2022-09-07T01:41:31.533Z,98.59
2022-09-07T01:45:46.247Z,98.71
2022-09-07T01:51:04.891Z,98.53
2022-09-07T01:56:24.272Z,98.46
2022-09-07T02:01:44.129Z,98.52
2022-09-07T02:07:03.590Z,98.73
2022-09-07T02:12:22.288Z,98.73
2022-09-07T02:17:41.259Z,98.86
2022-09-07T02:23:10.322Z,99.27
2022-09-07T02:28:19.376Z,98.83
2022-09-07T02:33:38.328Z,99.03
2022-09-07T02:39:08.702Z,98.96
2022-09-07T02:44:27.297Z,98.89
2022-09-07T02:49:36.792Z,98.9
2022-09-07T02:54:56.133Z,98.94
2022-09-07T03:00:15.155Z,98.98
2022-09-07T03:05:33.882Z,99.04
2022-09-07T03:10:53.255Z,99.14
2022-09-07T03:16:12.027Z,99.25
2022-09-07T03:21:30.907Z,99.08
2022-09-07T03:26:49.683Z,99.06
2022-09-07T03:32:09.284Z,98.94
2022-09-07T03:37:37.547Z,98.99
2022-09-07T03:42:47.799Z,99.15
2022-09-07T03:49:22.008Z,98.95
2022-09-07T03:58:46.179Z,98.84
2022-09-07T04:04:04.783Z,98.85
2022-09-07T04:09:23.478Z,98.62
2022-09-07T04:14:42.769Z,98.34
2022-09-07T04:20:02.067Z,98.36
2022-09-07T04:25:21.734Z,98.3
2022-09-07T04:30:41.182Z,98.43
2022-09-07T04:35:59.986Z,98.73
2022-09-07T04:42:45.150Z,98.66
2022-09-07T04:51:58.542Z,99.05
2022-09-07T05:01:34.727Z,98.87
2022-09-07T05:05:51.197Z,98.64
2022-09-07T05:07:57.047Z,98.62
2022-09-07T05:13:28.540Z,98.19
2022-09-07T05:18:35.613Z,97.71
2022-09-07T05:23:55.292Z,97.23
2022-09-07T05:34:34.030Z,96.44
2022-09-07T05:39:53.560Z,96.3
2022-09-07T05:45:12.422Z,97.15
2022-09-07T05:53:45.470Z,96.01
2022-09-07T05:58:01.980Z,92.46
2022-09-07T06:06:35.080Z,93.44
2022-09-07T06:15:08.142Z,91.99
2022-09-07T06:22:28.915Z,86.67
2022-09-07T06:27:44.582Z,85.41
2022-09-07T06:33:04.167Z,84.22
2022-09-07T06:38:22.947Z,79.03
2022-09-07T06:43:44.139Z,80.18
2022-09-07T06:49:01.252Z,78.86
2022-09-07T07:00:54.409Z,78.28
2022-09-07T07:04:59.971Z,75.01
2022-09-07T07:13:33.004Z,69.6
2022-09-07T07:22:18.558Z,66.37
2022-09-07T07:26:17.370Z,62.87
2022-09-07T07:31:36.163Z,62.98
2022-09-07T07:36:55.789Z,63.27
2022-09-07T07:42:14.535Z,65
2022-09-07T07:53:42.510Z,61.6
2022-09-07T07:58:40.001Z,59.55
2022-09-07T08:03:59.217Z,60.94
2022-09-07T08:12:32.250Z,60.73
2022-09-07T08:19:56.536Z,60.34
2022-09-07T08:25:15.599Z,61.03
2022-09-07T08:30:34.252Z,61.12
2022-09-07T08:35:53.449Z,62.2
2022-09-07T08:41:12.276Z,60.16
2022-09-07T08:46:31.926Z,59.31
2022-09-07T08:51:51.146Z,59.63
2022-09-07T08:57:23.003Z,59.78
2022-09-07T09:02:31.854Z,58.82
2022-09-07T09:07:49.081Z,57.24
2022-09-07T09:13:08.650Z,58.23
2022-09-07T09:18:27.389Z,59.03
2022-09-07T09:23:46.739Z,59.48
2022-09-07T09:29:05.455Z,57.05
2022-09-07T09:34:28.656Z,55.89
2022-09-07T09:39:43.816Z,57.65
2022-09-07T09:48:16.866Z,57.89
2022-09-07T09:56:49.894Z,55.55
2022-09-07T10:01:23.305Z,55.71
2022-09-07T10:06:18.702Z,54.94
2022-09-07T10:12:05.474Z,55.46
2022-09-07T10:20:10.502Z,53.73
2022-09-07T10:29:07.512Z,52.12
2022-09-07T10:32:54.028Z,50.57
2022-09-07T10:38:13.370Z,49.83
2022-09-07T10:43:32.129Z,52.16
2022-09-07T10:48:51.341Z,50.35
2022-09-07T10:54:31.530Z,52.56
2022-09-07T11:00:07.368Z,50.2
2022-09-07T11:04:49.449Z,49.08
2022-09-07T11:10:08.655Z,50.82
2022-09-07T11:15:28.043Z,51.68
2022-09-07T11:20:47.367Z,48.24
2022-09-07T11:26:05.885Z,49.51
2022-09-07T11:31:24.853Z,50.88
2022-09-07T11:36:43.484Z,51.75
2022-09-07T11:42:42.549Z,50.4
2022-09-07T11:52:40.626Z,52.25
2022-09-07T11:57:59.461Z,47.48
2022-09-07T12:03:22.174Z,47.15
2022-09-07T12:11:51.427Z,44.88
2022-09-07T12:19:16.067Z,45.57
2022-09-07T12:24:35.150Z,44.84
2022-09-07T12:29:54.591Z,45.28
2022-09-07T12:35:14.216Z,44.26
2022-09-07T12:40:33.388Z,40.9
2022-09-07T12:45:52.405Z,38.66
2022-09-07T12:51:11.499Z,38.99
2022-09-07T12:56:41.167Z,39.99
2022-09-07T13:05:03.200Z,40.63
2022-09-07T13:07:08.385Z,40.04
2022-09-07T13:12:53.348Z,40.55
2022-09-07T13:17:46.910Z,38.68
2022-09-07T13:23:05.831Z,37.09
2022-09-07T13:28:24.562Z,38.18
2022-09-07T13:33:43.981Z,37.91
2022-09-07T13:42:17.017Z,38.55
2022-09-07T13:49:41.698Z,38.21
2022-09-07T13:55:01.219Z,39.09
2022-09-07T14:00:20.379Z,38.09
2022-09-07T14:05:39.178Z,38.14
2022-09-07T14:10:58.497Z,36.72
2022-09-07T14:19:31.536Z,37.22
2022-09-07T14:21:36.916Z,36.09
2022-09-07T14:26:56.534Z,36.93
2022-09-07T14:35:29.585Z,37.23
2022-09-07T14:39:46.167Z,37.93
2022-09-07T14:42:54.342Z,37.71
2022-09-07T14:48:31.411Z,35.8
2022-09-07T14:53:34.601Z,34.9
2022-09-07T14:58:51.284Z,34.95
2022-09-07T15:04:10.175Z,34.21
2022-09-07T15:09:28.960Z,34.5
2022-09-07T15:14:48.366Z,35.3
2022-09-07T15:20:07.852Z,35.08
2022-09-07T15:25:27.186Z,36.03
2022-09-07T15:30:46.067Z,37.72
2022-09-07T15:36:05.012Z,36.97
2022-09-07T15:41:24.601Z,37.86
2022-09-07T15:47:42.324Z,38.23
2022-09-07T15:52:06.403Z,39.16
2022-09-07T15:57:54.879Z,40.14
2022-09-07T16:03:05.619Z,39.14
2022-09-07T16:08:25.954Z,39.08
2022-09-07T16:13:20.218Z,39.07
2022-09-07T16:18:39.531Z,38.13
2022-09-07T16:23:58.535Z,39.79
2022-09-07T16:29:17.770Z,40.33
2022-09-07T16:34:37.138Z,40.93
2022-09-07T16:39:56.713Z,40.37
2022-09-07T16:50:34.841Z,40.25
2022-09-07T16:59:07.887Z,39.73
2022-09-07T17:03:24.424Z,40.43
2022-09-07T17:11:57.471Z,43.47
2022-09-07T17:17:11.780Z,44.38
2022-09-07T17:22:40.816Z,45.39
2022-09-07T17:27:49.756Z,45.94
2022-09-07T17:33:08.853Z,46.64
2022-09-07T17:41:41.901Z,48.33
2022-09-07T17:43:47.409Z,48.75
2022-09-07T17:49:07.072Z,49.16
2022-09-07T17:54:26.482Z,49.2
2022-09-07T18:00:11.946Z,49.15
2022-09-07T18:05:04.582Z,49.81
2022-09-07T18:10:24.225Z,49.74
2022-09-07T18:15:44.105Z,50.21
2022-09-07T18:21:03.349Z,51.22
2022-09-07T18:26:22.510Z,52.8
2022-09-07T18:31:51.554Z,52.35
2022-09-07T18:37:11.318Z,52.32
2022-09-07T18:42:19.945Z,54.48
2022-09-07T18:47:39.756Z,56.19
2022-09-07T18:53:04.402Z,56.68
2022-09-07T18:58:17.428Z,59.2
2022-09-07T19:03:48.144Z,58.73
2022-09-07T19:08:55.639Z,58.24
2022-09-07T19:14:14.504Z,58.73
2022-09-07T19:22:47.558Z,59.64
2022-09-07T19:24:52.657Z,59.35
2022-09-07T19:30:11.778Z,60.25
2022-09-07T19:35:31.202Z,60.01
2022-09-07T19:40:50.100Z,61.31
2022-09-07T19:46:08.873Z,62.28
2022-09-07T19:51:28.503Z,62.93
2022-09-07T19:56:47.381Z,62.82
2022-09-07T20:02:06.567Z,64.14
2022-09-07T20:07:37.646Z,63.21
2022-09-07T20:12:44.674Z,63.42
2022-09-07T20:21:17.706Z,63.81
2022-09-07T20:34:00.149Z,65.94
2022-09-07T20:39:19.030Z,66.44
2022-09-07T20:44:38.232Z,66.8
2022-09-07T20:49:57.386Z,68.21
2022-09-07T20:55:16.304Z,68.31
2022-09-07T21:00:35.178Z,69.61
2022-09-07T21:06:05.678Z,68.04
2022-09-07T21:11:13.438Z,68.19
2022-09-07T21:16:33.131Z,70.89
2022-09-07T21:22:03.716Z,69.39
2022-09-07T21:27:24.096Z,70.23
2022-09-07T21:35:45.107Z,70.17
2022-09-07T21:44:30.188Z,71.86
2022-09-07T21:48:34.719Z,71.76
2022-09-07T21:53:46.653Z,71.94
2022-09-07T21:59:05.987Z,72.65
2022-09-07T22:04:36.823Z,72.72
2022-09-07T22:12:57.893Z,72.05
2022-09-07T22:25:41.599Z,73.68
2022-09-07T22:31:00.440Z,73.51
2022-09-07T22:36:19.400Z,72.58
2022-09-07T22:41:39.089Z,73.87
2022-09-07T22:46:58.349Z,75.23
2022-09-07T22:52:17.135Z,72.54
2022-09-07T22:57:35.952Z,72.35
2022-09-07T23:02:55.636Z,74.31
2022-09-07T23:08:14.484Z,80.72
2022-09-07T23:13:33.801Z,80.62
2022-09-07T23:18:52.786Z,78.89
2022-09-07T23:24:11.585Z,79.1
2022-09-07T23:29:31.033Z,80.61
2022-09-07T23:35:01.622Z,78.5
2022-09-07T23:40:09.757Z,78.31
2022-09-07T23:45:39.070Z,78.36
2022-09-07T23:54:13.171Z,78.41
2022-09-07T23:58:18.675Z,79.76
